Time;durP1;ratioP1;P1;durP2;ratioP2;P2;SDS_P1;SDS_P2;PMS_P1;PMS_P2;Temp;Humidity;BMP_temperature;BMP_pressure;BME280_temperature;BME280_humidity;BME280_pressure;Samples;Min_cycle;Max_cycle;Signal;HPM_P1;HPM_P2
2022/08/29 00:02:11;;;;;;;9.25;3.65;;;15.70;99.90;;;;;;5083634;28;20044;-64
2022/08/29 00:04:37;;;;;;;9.30;3.85;;;15.70;99.90;;;;;;5083097;28;20087;-64
2022/08/29 00:07:03;;;;;;;8.55;3.65;;;15.70;99.90;;;;;;5083850;28;20036;-64
2022/08/29 00:09:28;;;;;;;9.27;3.78;;;15.80;99.90;;;;;;5085009;28;20041;-64
2022/08/29 00:11:54;;;;;;;9.25;3.60;;;15.70;99.90;;;;;;5079149;28;20331;-64
2022/08/29 00:14:20;;;;;;;10.45;4.00;;;15.70;99.90;;;;;;5084164;28;20044;-64
2022/08/29 00:16:46;;;;;;;7.47;3.78;;;15.70;99.90;;;;;;5075953;28;20052;-64
2022/08/29 00:19:11;;;;;;;9.02;3.72;;;15.80;99.90;;;;;;5083770;28;20266;-64
2022/08/29 00:21:37;;;;;;;9.13;3.88;;;15.80;99.90;;;;;;5082367;28;20045;-64
2022/08/29 00:24:03;;;;;;;8.00;3.30;;;15.80;99.90;;;;;;5082411;28;20080;-65
2022/08/29 00:26:28;;;;;;;11.63;3.63;;;15.80;99.90;;;;;;5084219;28;20044;-64
2022/08/29 00:28:54;;;;;;;8.07;3.35;;;15.90;99.90;;;;;;5082563;28;20046;-64
2022/08/29 00:31:20;;;;;;;8.98;3.30;;;15.90;99.90;;;;;;5082554;28;20040;-64
2022/08/29 00:33:45;;;;;;;12.73;3.50;;;16.00;99.90;;;;;;5083184;28;20109;-64
2022/08/29 00:36:12;;;;;;;7.25;3.72;;;16.00;99.90;;;;;;5084294;28;20710;-64
2022/08/29 00:38:38;;;;;;;8.30;3.83;;;15.90;99.90;;;;;;5084658;28;20063;-64
2022/08/29 00:41:04;;;;;;;6.85;3.53;;;15.90;99.90;;;;;;5066715;28;20052;-64
2022/08/29 00:43:35;;;;;;;7.90;3.53;;;15.90;99.90;;;;;;5084549;28;20048;-64
2022/08/29 00:46:09;;;;;;;7.60;3.75;;;15.90;99.90;;;;;;5085126;28;20052;-64
2022/08/29 00:48:37;;;;;;;12.45;3.30;;;15.80;99.90;;;;;;5083723;28;20036;-64
2022/08/29 00:51:07;;;;;;;23.70;4.45;;;15.70;99.90;;;;;;5083683;28;20056;-64
2022/08/29 00:53:37;;;;;;;39.78;6.22;;;15.70;99.90;;;;;;5083252;28;20097;-64
2022/08/29 00:56:04;;;;;;;;;;;15.70;99.90;;;;;;5083122;28;20044;-65
2022/08/29 00:58:39;;;;;;;8.27;3.78;;;15.70;99.90;;;;;;5080226;28;19921;-64
2022/08/29 01:01:06;;;;;;;8.98;3.80;;;15.70;99.90;;;;;;5083456;28;20047;-64
2022/08/29 01:03:35;;;;;;;8.75;3.58;;;15.70;99.90;;;;;;5082628;28;20081;-64
2022/08/29 01:06:02;;;;;;;10.40;4.25;;;15.70;99.90;;;;;;5082293;28;20045;-64
2022/08/29 01:08:29;;;;;;;11.38;4.15;;;15.70;99.90;;;;;;5082446;28;20135;-65
2022/08/29 01:13:41;;;;;;;10.85;4.07;;;15.70;99.90;;;;;;5082412;28;20055;-65
2022/08/29 01:16:09;;;;;;;13.52;4.10;;;15.70;99.90;;;;;;5084705;28;20068;-64
2022/08/29 01:18:38;;;;;;;11.45;3.75;;;15.70;99.90;;;;;;5082521;28;20052;-64
2022/08/29 01:21:17;;;;;;;9.90;3.90;;;15.70;99.90;;;;;;5082981;28;20092;-64
2022/08/29 01:23:53;;;;;;;9.48;4.40;;;15.70;99.90;;;;;;5083275;28;20104;-64
2022/08/29 01:26:21;;;;;;;10.15;4.53;;;15.70;99.90;;;;;;5084661;28;20053;-64
2022/08/29 01:28:50;;;;;;;9.80;3.95;;;15.80;99.90;;;;;;5082953;28;20040;-64
2022/08/29 01:31:25;;;;;;;8.63;4.10;;;15.80;99.90;;;;;;5081833;28;20048;-64
2022/08/29 01:33:55;;;;;;;10.32;4.65;;;15.70;99.90;;;;;;5082630;28;20037;-64
2022/08/29 01:36:32;;;;;;;8.80;3.78;;;15.70;99.90;;;;;;5084912;28;20074;-64
2022/08/29 01:38:58;;;;;;;9.10;4.10;;;15.70;99.90;;;;;;5079281;28;20047;-64
2022/08/29 01:41:25;;;;;;;13.57;4.40;;;15.70;99.90;;;;;;5082097;28;20061;-64
2022/08/29 01:43:54;;;;;;;8.07;3.88;;;15.70;99.90;;;;;;5083233;28;20037;-64
2022/08/29 01:46:29;;;;;;;10.32;4.75;;;15.70;99.90;;;;;;5083140;28;20530;-64
2022/08/29 01:48:56;;;;;;;11.25;4.53;;;15.70;99.90;;;;;;5081729;28;20051;-64
2022/08/29 01:51:23;;;;;;;7.75;3.75;;;15.70;99.90;;;;;;5082157;28;20058;-64
2022/08/29 01:53:50;;;;;;;10.95;4.60;;;15.80;99.90;;;;;;5084007;28;20047;-64
2022/08/29 01:56:29;;;;;;;13.30;4.55;;;15.60;99.90;;;;;;5081578;28;20045;-65
2022/08/29 01:58:57;;;;;;;9.48;4.55;;;15.70;99.90;;;;;;5098115;28;20056;-65
2022/08/29 02:01:27;;;;;;;9.98;4.70;;;15.60;99.90;;;;;;5100782;28;20053;-64
2022/08/29 02:03:53;;;;;;;10.40;5.40;;;15.60;99.90;;;;;;5084607;28;20041;-64
2022/08/29 02:06:19;;;;;;;9.55;4.50;;;15.60;99.90;;;;;;5087258;28;20043;-64
2022/08/29 02:08:46;;;;;;;11.02;4.70;;;15.60;99.90;;;;;;5083464;28;20501;-64
2022/08/29 02:11:12;;;;;;;10.50;4.55;;;15.60;99.90;;;;;;5086780;28;20127;-64
2022/08/29 02:13:42;;;;;;;8.00;4.00;;;15.60;99.90;;;;;;5082488;28;20040;-64
2022/08/29 02:16:08;;;;;;;10.45;3.97;;;15.60;99.90;;;;;;5095651;28;20102;-64
2022/08/29 02:18:34;;;;;;;10.88;4.32;;;15.60;99.90;;;;;;5087846;28;20048;-64
2022/08/29 02:21:00;;;;;;;11.57;4.13;;;15.50;99.90;;;;;;5084652;28;20056;-64
2022/08/29 02:23:26;;;;;;;12.75;3.83;;;15.50;99.90;;;;;;5086221;28;20110;-65
2022/08/29 02:25:52;;;;;;;14.02;3.95;;;15.60;99.90;;;;;;5086902;28;20040;-64
2022/08/29 02:28:19;;;;;;;10.75;4.93;;;15.60;99.90;;;;;;5087707;28;20206;-64
2022/08/29 02:30:51;;;;;;;8.45;4.82;;;15.60;99.90;;;;;;5081382;28;20059;-64
2022/08/29 02:33:18;;;;;;;10.43;4.22;;;15.60;99.90;;;;;;5079869;28;20474;-64
2022/08/29 02:35:44;;;;;;;8.57;4.00;;;15.50;99.90;;;;;;5081949;28;20628;-64
2022/08/29 02:38:11;;;;;;;10.60;4.07;;;15.50;99.90;;;;;;5086541;28;20052;-64
2022/08/29 02:40:37;;;;;;;9.45;4.45;;;15.50;99.90;;;;;;5085150;28;20044;-64
2022/08/29 02:43:04;;;;;;;10.18;4.38;;;15.50;99.90;;;;;;5084442;28;20104;-64
2022/08/29 02:45:30;;;;;;;8.25;4.18;;;15.50;99.90;;;;;;5084855;28;20044;-64
2022/08/29 02:47:57;;;;;;;12.48;4.57;;;15.50;99.90;;;;;;5086331;28;20056;-64
2022/08/29 02:50:24;;;;;;;10.20;4.43;;;15.50;99.90;;;;;;5084486;28;20087;-64
2022/08/29 02:52:51;;;;;;;7.38;4.05;;;15.50;99.90;;;;;;5084853;28;20098;-64
2022/08/29 02:55:19;;;;;;;8.48;3.97;;;15.50;99.90;;;;;;5078449;28;20052;-64
2022/08/29 02:57:46;;;;;;;11.82;4.43;;;15.60;99.90;;;;;;5086949;28;20091;-64
2022/08/29 03:00:18;;;;;;;9.43;3.92;;;15.60;99.90;;;;;;5085409;28;20052;-64
2022/08/29 03:02:46;;;;;;;13.15;4.30;;;15.60;99.90;;;;;;5085875;28;20066;-64
2022/08/29 03:05:13;;;;;;;10.15;4.10;;;15.60;99.90;;;;;;5083828;28;20052;-64
2022/08/29 03:07:38;;;;;;;11.43;3.88;;;15.60;99.90;;;;;;5085723;28;20051;-64
2022/08/29 03:10:06;;;;;;;11.50;5.00;;;15.60;99.90;;;;;;5084670;28;20040;-64
2022/08/29 03:12:33;;;;;;;7.30;3.60;;;15.60;99.90;;;;;;5083783;28;20055;-64
2022/08/29 03:14:59;;;;;;;11.02;4.47;;;15.70;99.90;;;;;;5086588;28;20044;-64
2022/08/29 03:17:25;;;;;;;9.90;4.10;;;15.60;99.90;;;;;;5086448;28;20071;-64
2022/08/29 03:19:50;;;;;;;8.48;3.88;;;15.70;99.90;;;;;;5083334;28;20084;-64
2022/08/29 03:22:16;;;;;;;8.98;3.97;;;15.70;99.90;;;;;;5086260;28;20037;-64
2022/08/29 03:24:42;;;;;;;10.95;3.78;;;15.70;99.90;;;;;;5086112;28;20041;-64
2022/08/29 03:27:08;;;;;;;8.82;4.00;;;15.60;99.90;;;;;;5083617;28;20079;-64
2022/08/29 03:29:34;;;;;;;11.13;4.65;;;15.70;99.90;;;;;;5085183;28;20044;-64
2022/08/29 03:32:00;;;;;;;9.65;4.05;;;15.70;99.90;;;;;;5083807;28;20074;-64
2022/08/29 03:34:27;;;;;;;10.68;4.05;;;15.70;99.90;;;;;;5080688;28;20037;-64
2022/08/29 03:36:53;;;;;;;11.23;3.38;;;15.70;99.90;;;;;;5085053;28;20040;-64
2022/08/29 03:39:19;;;;;;;7.38;3.25;;;15.70;99.90;;;;;;5083878;28;20145;-64
2022/08/29 03:41:45;;;;;;;8.43;3.42;;;15.70;99.90;;;;;;5086017;28;20052;-64
2022/08/29 03:44:11;;;;;;;13.77;4.28;;;15.70;99.90;;;;;;5084727;28;20047;-64
2022/08/29 03:46:38;;;;;;;9.85;3.92;;;15.80;99.90;;;;;;5083668;28;20083;-64
2022/08/29 03:49:06;;;;;;;10.80;3.72;;;15.80;99.90;;;;;;5084834;28;20048;-64
2022/08/29 03:51:36;;;;;;;10.70;3.38;;;15.80;99.90;;;;;;5084772;28;20464;-64
2022/08/29 03:54:03;;;;;;;9.98;3.30;;;15.80;99.90;;;;;;5084404;28;20052;-64
2022/08/29 03:56:28;;;;;;;8.88;3.38;;;15.80;99.90;;;;;;5067266;28;20403;-64
2022/08/29 03:58:55;;;;;;;9.30;3.20;;;15.80;99.90;;;;;;5083332;28;20052;-64
2022/08/29 04:01:24;;;;;;;9.90;3.30;;;15.90;99.90;;;;;;5083995;28;20049;-64
2022/08/29 04:03:51;;;;;;;9.32;3.35;;;15.90;99.90;;;;;;5083365;28;20054;-64
2022/08/29 04:06:17;;;;;;;10.82;3.17;;;15.90;99.90;;;;;;5084512;28;20048;-64
2022/08/29 04:08:46;;;;;;;8.63;2.97;;;15.90;99.90;;;;;;5084366;28;20041;-64
2022/08/29 04:11:13;;;;;;;8.68;3.17;;;15.90;99.90;;;;;;5081436;28;20409;-64
2022/08/29 04:13:39;;;;;;;9.95;3.97;;;15.90;99.90;;;;;;5084455;28;20445;-64
2022/08/29 04:16:17;;;;;;;14.75;4.95;;;15.90;99.90;;;;;;5083359;28;20044;-64
2022/08/29 04:18:43;;;;;;;12.00;4.63;;;15.80;99.90;;;;;;5084255;28;20100;-64
2022/08/29 04:21:08;;;;;;;14.25;3.75;;;15.80;99.90;;;;;;5079970;28;20041;-64
2022/08/29 04:23:36;;;;;;;10.30;4.72;;;15.70;99.90;;;;;;5061344;28;20048;-65
2022/08/29 04:26:03;;;;;;;12.15;3.20;;;15.70;99.90;;;;;;5071787;28;20173;-64
2022/08/29 04:28:29;;;;;;;9.65;3.72;;;15.60;99.90;;;;;;5084167;28;20051;-65
2022/08/29 04:30:55;;;;;;;8.13;4.05;;;15.50;99.90;;;;;;5081228;28;20056;-64
2022/08/29 04:33:23;;;;;;;10.35;4.07;;;15.60;99.90;;;;;;5040237;28;20052;-65
2022/08/29 04:35:50;;;;;;;10.73;3.78;;;15.60;99.90;;;;;;5063211;28;20140;-65
2022/08/29 04:38:16;;;;;;;12.07;4.00;;;15.50;99.90;;;;;;5076929;28;20461;-67
2022/08/29 04:40:43;;;;;;;10.45;3.63;;;15.50;99.90;;;;;;5076143;28;20059;-67
2022/08/29 04:43:09;;;;;;;10.32;3.13;;;15.50;99.90;;;;;;5060038;28;20056;-67
2022/08/29 04:45:35;;;;;;;12.35;3.65;;;15.50;99.90;;;;;;5067806;28;20288;-67
2022/08/29 04:48:02;;;;;;;8.98;4.15;;;15.50;99.90;;;;;;5066224;28;20071;-67
2022/08/29 04:50:28;;;;;;;14.15;3.72;;;15.50;99.90;;;;;;5081237;28;20049;-67
2022/08/29 04:52:55;;;;;;;10.65;3.28;;;15.50;99.90;;;;;;5062397;28;20052;-67
2022/08/29 04:55:22;;;;;;;12.60;3.10;;;15.50;99.90;;;;;;5081305;28;20048;-68
2022/08/29 04:57:49;;;;;;;10.65;3.22;;;15.50;99.90;;;;;;5064897;28;20582;-68
2022/08/29 05:00:20;;;;;;;11.85;3.67;;;15.60;99.90;;;;;;5064392;28;20048;-67
2022/08/29 05:02:46;;;;;;;16.65;4.03;;;15.60;99.90;;;;;;5064218;28;20048;-68
2022/08/29 05:05:14;;;;;;;14.48;4.70;;;15.60;99.90;;;;;;5062658;28;20048;-67
2022/08/29 05:07:41;;;;;;;8.02;3.97;;;15.60;99.90;;;;;;5064908;28;20079;-68
2022/08/29 05:10:19;;;;;;;9.25;3.38;;;15.60;99.90;;;;;;5064896;28;20067;-64
2022/08/29 05:12:45;;;;;;;8.52;3.17;;;15.70;99.90;;;;;;5066048;28;20077;-65
2022/08/29 05:15:12;;;;;;;9.82;3.30;;;15.70;99.90;;;;;;5061311;28;20421;-65
2022/08/29 05:17:38;;;;;;;17.42;4.20;;;15.70;99.90;;;;;;5065085;28;20079;-65
2022/08/29 05:20:06;;;;;;;11.75;3.72;;;15.70;99.90;;;;;;5060625;28;20041;-65
2022/08/29 05:22:32;;;;;;;11.98;3.78;;;15.70;99.90;;;;;;5067625;28;20436;-65
2022/08/29 05:24:58;;;;;;;7.90;3.45;;;15.70;99.90;;;;;;5057152;28;20048;-67
2022/08/29 05:27:24;;;;;;;14.23;3.55;;;15.70;99.90;;;;;;5062214;28;20398;-66
2022/08/29 05:29:50;;;;;;;12.35;3.70;;;15.80;99.90;;;;;;5073867;28;20056;-65
2022/08/29 05:32:18;;;;;;;11.05;3.30;;;15.80;99.90;;;;;;5074286;28;20041;-65
2022/08/29 05:34:45;;;;;;;8.55;3.40;;;15.90;99.90;;;;;;5053052;28;20542;-65
2022/08/29 05:37:18;;;;;;;11.65;4.25;;;15.90;99.90;;;;;;5048930;28;20040;-65
2022/08/29 05:39:44;;;;;;;11.02;4.03;;;16.00;99.90;;;;;;5015339;28;20072;-65
2022/08/29 05:42:11;;;;;;;9.13;3.83;;;16.00;99.90;;;;;;5059556;28;20052;-65
2022/08/29 05:44:37;;;;;;;7.40;3.53;;;16.10;99.90;;;;;;5033081;28;20481;-64
2022/08/29 05:47:09;;;;;;;11.65;3.42;;;16.10;99.90;;;;;;5061470;28;20043;-65
2022/08/29 05:49:37;;;;;;;11.45;3.00;;;16.20;99.90;;;;;;5045975;28;20064;-65
2022/08/29 05:52:03;;;;;;;10.13;3.05;;;16.30;99.90;;;;;;5059390;28;20045;-65
2022/08/29 05:54:32;;;;;;;8.82;3.75;;;16.20;99.90;;;;;;5064012;28;20106;-65
2022/08/29 05:56:58;;;;;;;6.95;2.92;;;16.30;99.90;;;;;;5059379;28;20421;-65
2022/08/29 05:59:23;;;;;;;11.27;3.78;;;16.30;99.90;;;;;;5034692;28;20079;-65
2022/08/29 06:01:49;;;;;;;12.30;3.60;;;16.40;99.90;;;;;;5057005;28;20068;-65
2022/08/29 06:04:15;;;;;;;9.77;3.35;;;16.40;99.90;;;;;;5055625;28;20052;-65
2022/08/29 06:06:41;;;;;;;11.77;3.60;;;16.50;99.90;;;;;;5057164;28;20071;-65
2022/08/29 06:09:07;;;;;;;6.57;2.80;;;16.50;99.90;;;;;;5050065;28;20056;-65
2022/08/29 06:11:33;;;;;;;11.38;3.63;;;16.50;99.90;;;;;;5074112;28;20412;-66
2022/08/29 06:14:00;;;;;;;12.75;3.20;;;16.60;99.90;;;;;;5053093;28;20052;-65
2022/08/29 06:16:28;;;;;;;9.13;2.97;;;16.60;99.90;;;;;;5068457;28;20051;-65
2022/08/29 06:18:54;;;;;;;11.13;3.20;;;16.70;99.90;;;;;;5048778;28;20124;-65
2022/08/29 06:21:21;;;;;;;9.27;3.10;;;16.80;99.90;;;;;;5065105;28;20929;-65
2022/08/29 06:23:47;;;;;;;9.88;2.90;;;16.80;99.90;;;;;;5030270;28;20063;-65
2022/08/29 06:26:13;;;;;;;8.15;3.72;;;16.90;99.90;;;;;;5058350;28;20075;-65
2022/08/29 06:28:44;;;;;;;8.70;3.03;;;16.90;99.90;;;;;;5042167;28;20194;-65
2022/08/29 06:31:23;;;;;;;9.35;3.28;;;17.00;99.90;;;;;;5061766;28;20044;-65
2022/08/29 06:33:53;;;;;;;8.90;3.25;;;17.10;99.90;;;;;;5062781;28;20040;-65
2022/08/29 06:36:19;;;;;;;;;;;17.10;99.90;;;;;;5061581;28;20048;-65
2022/08/29 06:38:45;;;;;;;8.95;3.13;;;17.20;99.90;;;;;;5068718;28;19974;-65
2022/08/29 06:41:16;;;;;;;9.77;2.78;;;17.30;99.90;;;;;;5078459;28;20045;-65
2022/08/29 06:43:42;;;;;;;8.52;3.05;;;17.40;99.90;;;;;;5076541;28;20120;-65
2022/08/29 06:46:22;;;;;;;8.45;2.70;;;17.40;99.90;;;;;;5078665;28;20048;-65
2022/08/29 06:48:49;;;;;;;8.85;2.97;;;17.50;99.90;;;;;;5077238;28;20050;-65
2022/08/29 06:51:15;;;;;;;8.45;2.97;;;17.60;99.90;;;;;;5076657;28;20309;-67
2022/08/29 06:53:40;;;;;;;9.85;2.72;;;17.70;99.90;;;;;;5075652;28;20635;-70
2022/08/29 06:56:07;;;;;;;10.93;3.42;;;17.70;99.90;;;;;;5074632;28;20040;-70
2022/08/29 06:58:33;;;;;;;10.15;3.30;;;17.70;99.90;;;;;;5069513;28;20083;-70
2022/08/29 07:01:05;;;;;;;10.65;3.35;;;17.70;99.90;;;;;;5072237;28;20044;-70
2022/08/29 07:03:31;;;;;;;8.32;3.38;;;17.80;99.90;;;;;;5048781;28;20282;-70
2022/08/29 07:05:56;;;;;;;11.52;3.55;;;17.80;99.90;;;;;;5048046;28;20055;-70
2022/08/29 07:08:22;;;;;;;10.20;3.40;;;17.90;99.90;;;;;;5067499;28;20515;-70
2022/08/29 07:10:48;;;;;;;12.15;3.22;;;17.90;99.90;;;;;;5088201;28;20044;-70
2022/08/29 07:13:14;;;;;;;13.93;3.05;;;18.00;99.90;;;;;;5070715;28;20055;-70
2022/08/29 07:15:40;;;;;;;7.43;3.47;;;18.00;99.90;;;;;;5059517;28;20052;-70
2022/08/29 07:18:06;;;;;;;8.60;3.25;;;18.10;99.90;;;;;;5066139;28;20051;-71
2022/08/29 07:20:32;;;;;;;17.83;3.97;;;18.10;99.90;;;;;;5075584;28;20055;-69
2022/08/29 07:22:57;;;;;;;14.68;4.03;;;18.20;99.90;;;;;;5065100;28;20032;-69
2022/08/29 07:25:23;;;;;;;15.93;4.18;;;18.20;99.90;;;;;;5051360;28;20079;-69
2022/08/29 07:27:49;;;;;;;10.20;3.60;;;18.30;99.90;;;;;;5068145;28;20063;-69
2022/08/29 07:30:17;;;;;;;12.45;3.20;;;18.30;99.90;;;;;;5048840;28;20181;-69
2022/08/29 07:32:44;;;;;;;11.98;3.70;;;18.30;99.90;;;;;;5074738;28;20049;-69
2022/08/29 07:35:12;;;;;;;13.82;3.58;;;18.40;99.90;;;;;;5062569;28;20059;-70
2022/08/29 07:37:38;;;;;;;7.80;3.35;;;18.40;99.90;;;;;;5074936;28;20052;-70
2022/08/29 07:40:06;;;;;;;10.00;3.55;;;18.40;99.90;;;;;;5047111;28;20063;-69
2022/08/29 07:42:33;;;;;;;13.52;4.72;;;18.40;99.90;;;;;;5076178;28;20499;-69
2022/08/29 07:44:59;;;;;;;12.95;4.30;;;18.40;99.90;;;;;;5061623;28;20044;-70
2022/08/29 07:47:25;;;;;;;9.85;3.85;;;18.40;99.90;;;;;;5071403;28;20450;-70
2022/08/29 07:49:52;;;;;;;9.68;3.58;;;18.40;99.90;;;;;;5060236;28;20120;-70
2022/08/29 07:52:18;;;;;;;9.93;4.15;;;18.50;99.90;;;;;;5075528;28;20055;-70
2022/08/29 07:54:43;;;;;;;12.18;3.80;;;18.50;99.90;;;;;;5045707;28;20056;-69
2022/08/29 07:57:09;;;;;;;14.55;4.40;;;18.60;99.90;;;;;;5076556;28;20051;-70
2022/08/29 07:59:35;;;;;;;15.55;4.65;;;18.60;99.90;;;;;;5068868;28;20462;-70
2022/08/29 08:02:02;;;;;;;13.52;3.72;;;18.70;99.90;;;;;;5079454;28;20115;-71
2022/08/29 08:04:28;;;;;;;9.20;3.78;;;18.90;99.90;;;;;;5072979;28;20052;-71
2022/08/29 08:06:54;;;;;;;5.93;3.30;;;19.00;99.90;;;;;;5071960;28;20076;-71
2022/08/29 08:09:20;;;;;;;8.25;3.22;;;19.10;99.90;;;;;;5035490;28;20052;-71
2022/08/29 08:11:46;;;;;;;11.60;4.38;;;19.10;99.90;;;;;;5075129;28;20622;-71
2022/08/29 08:14:12;;;;;;;10.38;3.75;;;19.20;99.90;;;;;;5066438;28;20108;-71
2022/08/29 08:16:38;;;;;;;9.80;3.78;;;19.20;99.90;;;;;;5064586;28;20041;-71
2022/08/29 08:19:05;;;;;;;13.93;4.13;;;19.20;99.90;;;;;;5071358;28;20048;-71
2022/08/29 08:21:30;;;;;;;10.40;3.92;;;19.30;99.90;;;;;;5072763;28;20048;-71
2022/08/29 08:23:56;;;;;;;16.38;4.25;;;19.40;99.90;;;;;;5048647;28;20062;-71
2022/08/29 08:26:22;;;;;;;16.75;4.63;;;19.40;99.90;;;;;;5092441;28;20575;-71
2022/08/29 08:28:48;;;;;;;15.02;4.20;;;19.40;99.90;;;;;;5065888;28;20045;-71
2022/08/29 08:31:18;;;;;;;11.98;4.15;;;19.40;99.90;;;;;;5064964;28;20044;-71
2022/08/29 08:33:45;;;;;;;13.18;3.75;;;19.40;99.90;;;;;;5051786;28;20072;-71
2022/08/29 08:36:28;;;;;;;12.75;4.72;;;19.50;99.90;;;;;;5075200;28;20047;-71
2022/08/29 08:38:55;;;;;;;16.13;4.82;;;19.50;99.90;;;;;;5058320;28;20686;-71
2022/08/29 08:41:45;;;;;;;15.68;5.00;;;19.70;99.90;;;;;;5063809;28;20048;-71
2022/08/29 08:44:31;;;;;;;14.05;4.38;;;19.80;99.90;;;;;;5059680;28;20116;-71
2022/08/29 08:46:59;;;;;;;71.63;9.32;;;19.90;99.90;;;;;;5014096;28;20074;-71
2022/08/29 08:49:48;;;;;;;15.20;4.40;;;19.90;99.90;;;;;;5057295;28;20056;-71
2022/08/29 08:52:21;;;;;;;12.77;4.57;;;20.00;99.90;;;;;;5070296;28;20058;-71
2022/08/29 08:55:17;;;;;;;14.90;4.97;;;20.00;99.90;;;;;;5067065;28;20052;-71
2022/08/29 08:57:59;;;;;;;11.80;3.83;;;20.00;99.90;;;;;;5072909;28;20249;-71
2022/08/29 09:00:25;;;;;;;11.23;4.68;;;20.20;99.90;;;;;;5049685;28;20060;-71
2022/08/29 09:03:13;;;;;;;15.27;4.60;;;20.30;99.90;;;;;;5072163;28;20066;-72
2022/08/29 09:06:00;;;;;;;12.80;4.00;;;20.30;99.90;;;;;;5048452;28;20048;-71
2022/08/29 09:08:40;;;;;;;11.20;5.13;;;20.40;99.90;;;;;;5048097;28;20055;-72
2022/08/29 09:11:28;;;;;;;13.00;4.93;;;20.30;99.90;;;;;;5062497;28;20056;-71
2022/08/29 09:14:25;;;;;;;14.88;5.05;;;20.40;99.90;;;;;;5000949;28;20071;-71
2022/08/29 09:16:55;;;;;;;19.52;4.65;;;20.50;99.90;;;;;;5033695;28;20040;-72
2022/08/29 09:19:21;;;;;;;;;;;20.50;99.90;;;;;;5044748;28;20056;-72
2022/08/29 09:21:48;;;;;;;11.13;4.30;;;20.50;99.90;;;;;;5055151;28;19921;-72
2022/08/29 09:24:24;;;;;;;14.25;4.07;;;20.50;99.90;;;;;;5017981;28;20049;-71
2022/08/29 09:26:50;;;;;;;12.82;4.18;;;20.50;99.90;;;;;;5040806;28;20045;-72
2022/08/29 09:29:19;;;;;;;12.40;4.35;;;20.60;99.90;;;;;;5019750;28;20080;-71
2022/08/29 09:32:01;;;;;;;8.23;4.20;;;20.70;99.90;;;;;;5060088;28;20527;-72
2022/08/29 09:34:37;;;;;;;15.35;4.20;;;20.80;99.90;;;;;;5048718;28;20068;-71
2022/08/29 09:37:03;;;;;;;9.45;3.80;;;20.80;99.90;;;;;;5073714;28;20055;-72
2022/08/29 09:39:31;;;;;;;12.82;4.03;;;20.80;99.90;;;;;;5046607;28;20060;-72
2022/08/29 09:42:12;;;;;;;8.27;4.07;;;20.70;99.90;;;;;;5073803;28;20059;-71
2022/08/29 09:44:39;;;;;;;12.38;4.68;;;20.80;99.90;;;;;;5022497;28;20041;-72
2022/08/29 09:47:18;;;;;;;15.75;4.95;;;20.80;99.90;;;;;;5049924;28;20051;-72
2022/08/29 09:50:08;;;;;;;11.13;4.20;;;20.80;99.90;;;;;;5028958;28;20444;-71
2022/08/29 09:52:38;;;;;;;13.48;4.88;;;20.70;99.90;;;;;;5057126;28;20045;-71
2022/08/29 09:55:18;;;;;;;11.80;4.38;;;20.60;99.90;;;;;;5026498;28;20065;-71
2022/08/29 09:57:54;;;;;;;12.70;4.38;;;20.70;99.90;;;;;;5037718;28;20052;-71
2022/08/29 10:00:26;;;;;;;12.30;4.10;;;20.70;99.90;;;;;;5026316;28;20057;-71
2022/08/29 10:02:55;;;;;;;10.63;4.40;;;20.80;99.90;;;;;;5055429;28;20045;-71
2022/08/29 10:05:40;;;;;;;11.40;3.95;;;20.80;99.90;;;;;;5059259;28;20141;-71
2022/08/29 10:08:22;;;;;;;9.48;3.92;;;20.80;99.90;;;;;;5073523;28;20166;-71
2022/08/29 10:10:53;;;;;;;11.98;4.65;;;20.80;99.90;;;;;;5044965;28;20280;-71
2022/08/29 10:13:23;;;;;;;9.45;3.90;;;20.80;99.90;;;;;;5073821;28;20440;-71
2022/08/29 10:15:56;;;;;;;;;;;20.90;99.90;;;;;;5048326;28;20104;-71
2022/08/29 10:18:50;;;;;;;14.20;4.15;;;20.90;99.90;;;;;;5071371;28;19929;-71
2022/08/29 10:21:19;;;;;;;12.45;3.95;;;21.00;99.90;;;;;;5038078;28;20061;-71
2022/08/29 10:24:11;;;;;;;14.40;4.15;;;21.10;99.90;;;;;;5067076;28;20039;-71
2022/08/29 10:26:40;;;;;;;16.88;5.45;;;21.20;99.90;;;;;;5063980;28;20037;-72
2022/08/29 10:29:18;;;;;;;12.93;3.95;;;21.40;99.90;;;;;;5070022;28;20058;-71
2022/08/29 10:32:01;;;;;;;12.43;4.50;;;21.50;99.90;;;;;;5057701;28;20108;-72
2022/08/29 10:34:42;;;;;;;11.00;4.35;;;21.60;99.90;;;;;;5086129;28;20097;-71
2022/08/29 10:37:34;;;;;;;12.75;4.32;;;21.70;99.90;;;;;;5076821;28;20044;-71
2022/08/29 10:40:33;;;;;;;10.98;4.22;;;21.90;99.90;;;;;;5057035;28;20063;-72
2022/08/29 10:43:27;;;;;;;8.93;4.43;;;22.00;99.90;;;;;;5076410;28;20054;-70
2022/08/29 10:45:56;;;;;;;13.32;4.90;;;22.10;99.90;;;;;;5044222;28;20064;-70
2022/08/29 10:48:30;;;;;;;10.88;4.30;;;22.10;99.90;;;;;;5077049;28;20188;-69
2022/08/29 10:50:58;;;;;;;8.48;3.97;;;22.00;99.90;;;;;;5051076;28;20052;-69
2022/08/29 10:53:50;;;;;;;8.98;4.15;;;22.00;99.90;;;;;;5076883;28;20532;-70
2022/08/29 10:56:21;;;;;;;10.68;3.60;;;22.00;99.90;;;;;;5048646;28;20048;-70
2022/08/29 10:59:04;;;;;;;8.38;3.97;;;22.00;99.90;;;;;;5066115;28;20045;-70
2022/08/29 11:01:39;;;;;;;14.10;4.70;;;22.00;99.90;;;;;;5077133;28;20045;-71
2022/08/29 11:04:28;;;;;;;13.77;5.13;;;22.00;99.90;;;;;;5063534;28;20062;-69
2022/08/29 11:07:19;;;;;;;12.13;4.88;;;22.00;99.90;;;;;;5064397;28;20067;-69
2022/08/29 11:09:58;;;;;;;12.30;4.43;;;21.80;99.90;;;;;;5085653;28;20123;-70
2022/08/29 11:12:51;;;;;;;12.35;4.28;;;21.70;99.90;;;;;;5075588;28;20112;-70
2022/08/29 11:15:17;;;;;;;10.80;4.50;;;21.60;99.90;;;;;;5065001;28;20618;-70
2022/08/29 11:17:48;;;;;;;11.20;4.60;;;21.60;99.90;;;;;;5089959;28;20049;-71
2022/08/29 11:20:20;;;;;;;8.95;3.92;;;21.60;99.90;;;;;;5059286;28;20062;-71
2022/08/29 11:22:56;;;;;;;15.50;4.28;;;21.60;99.90;;;;;;5074128;28;20059;-70
2022/08/29 11:25:22;;;;;;;9.98;4.05;;;21.60;99.90;;;;;;5055134;28;20432;-71
2022/08/29 11:28:12;;;;;;;13.38;4.68;;;21.70;99.90;;;;;;5073072;28;20040;-71
2022/08/29 11:30:46;;;;;;;10.23;3.85;;;21.70;99.90;;;;;;5067883;28;20120;-70
2022/08/29 11:33:16;;;;;;;12.10;4.38;;;21.70;99.90;;;;;;5075495;28;20443;-70
2022/08/29 11:36:06;;;;;;;13.20;4.53;;;21.70;99.90;;;;;;5052858;28;20147;-71
2022/08/29 11:38:58;;;;;;;7.05;3.28;;;21.80;99.90;;;;;;5077955;28;20044;-71
2022/08/29 11:41:43;;;;;;;9.48;3.78;;;21.80;99.90;;;;;;5049090;28;20108;-71
2022/08/29 11:44:28;;;;;;;11.15;4.10;;;21.90;99.90;;;;;;5082363;28;20104;-71
2022/08/29 11:46:54;;;;;;;8.82;3.47;;;22.00;99.90;;;;;;5074447;28;20044;-71
2022/08/29 11:49:37;;;;;;;13.90;4.40;;;22.10;99.90;;;;;;5048740;28;20064;-71
2022/08/29 11:52:09;;;;;;;10.63;4.65;;;22.20;99.90;;;;;;5081963;28;20385;-71
2022/08/29 11:54:35;;;;;;;9.80;3.50;;;22.30;99.90;;;;;;5066826;28;20040;-71
2022/08/29 11:57:02;;;;;;;7.13;3.65;;;22.30;99.90;;;;;;5090858;28;20059;-70
2022/08/29 11:59:49;;;;;;;10.80;4.13;;;22.40;99.90;;;;;;5050597;28;20052;-71
2022/08/29 12:02:27;;;;;;;8.65;3.78;;;22.40;99.90;;;;;;5092249;28;20044;-71
2022/08/29 12:05:15;;;;;;;11.25;4.22;;;22.50;99.90;;;;;;5059805;28;20052;-71
2022/08/29 12:07:53;;;;;;;13.35;4.57;;;22.60;99.90;;;;;;5069012;28;20040;-71
2022/08/29 12:10:19;;;;;;;10.50;3.95;;;22.70;99.90;;;;;;5054234;28;20041;-71
2022/08/29 12:13:05;;;;;;;13.73;4.10;;;22.80;99.90;;;;;;5066605;28;20078;-71
2022/08/29 12:15:31;;;;;;;10.07;3.63;;;22.90;99.90;;;;;;5052826;28;20117;-71
2022/08/29 12:18:12;;;;;;;11.27;4.10;;;23.10;99.90;;;;;;5075014;28;20135;-71
2022/08/29 12:20:44;;;;;;;8.00;3.38;;;23.10;99.90;;;;;;5067251;28;20236;-71
2022/08/29 12:23:10;;;;;;;10.07;3.58;;;23.20;99.90;;;;;;5056966;28;20540;-71
2022/08/29 12:25:43;;;;;;;10.05;4.00;;;23.10;99.90;;;;;;5041388;28;20050;-71
2022/08/29 12:28:19;;;;;;;11.35;3.95;;;23.10;99.90;;;;;;5092002;28;20044;-70
2022/08/29 12:30:57;;;;;;;14.57;4.35;;;23.10;99.90;;;;;;5052478;28;20076;-71
2022/08/29 12:33:44;;;;;;;6.80;3.42;;;23.20;99.90;;;;;;5074464;28;20141;-70
2022/08/29 12:36:34;;;;;;;9.10;3.45;;;23.20;99.90;;;;;;5049968;28;20055;-71
2022/08/29 12:39:33;;;;;;;7.82;3.22;;;23.20;99.90;;;;;;5062732;28;20483;-71
2022/08/29 12:42:47;;;;;;;9.50;3.35;;;23.20;99.90;;;;;;5063035;28;20040;-71
2022/08/29 12:45:26;;;;;;;9.13;3.13;;;23.30;99.90;;;;;;5055734;28;20036;-71
2022/08/29 12:48:08;;;;;;;11.48;4.38;;;23.40;99.90;;;;;;5060032;28;20544;-72
2022/08/29 12:50:42;;;;;;;7.95;3.10;;;23.40;99.90;;;;;;5068470;28;20051;-72
2022/08/29 12:53:26;;;;;;;9.73;3.30;;;23.60;99.90;;;;;;5077936;28;20569;-71
2022/08/29 12:55:58;;;;;;;7.63;3.78;;;23.70;99.90;;;;;;5066777;28;20048;-72
2022/08/29 12:58:43;;;;;;;11.95;3.70;;;23.80;99.90;;;;;;5077712;28;20048;-72
2022/08/29 13:01:32;;;;;;;8.20;3.22;;;24.00;99.90;;;;;;5065301;28;20040;-71
2022/08/29 13:04:03;;;;;;;7.47;2.90;;;24.20;99.90;;;;;;5057214;28;20040;-71
2022/08/29 13:06:30;;;;;;;9.57;3.72;;;24.20;99.90;;;;;;5037101;28;20446;-72